Latest Weather Observations for Swanbourne

IDW60801

Issued at 10:32 pm WST Tuesday 21 April 2015 (issued every 30 minutes, with the page automatically refreshed every 10 minutes)

About weather observations | Map of weather stations | Latest weather observations for WA | Other Formats
Station Details ID: 009215 Name: SWANBOURNE Lat: -31.96 Lon: 115.76 Height: 40.96 m
Data from the previous 72 hours. | See also: Recent months at Swanbourne
Date/Time
WST
Temp
°C
App
Temp
°C
Dew
Point
Rel
Hum
%
Delta-T
°C
Wind Press
QNH
hPa
Press
MSL
hPa
Rain
since 9 am
mm
Dir
 
Spd
km/h
Gust
km/h
Spd
kts
Gust
kts
21/10:30pm 16.2 14.4 10.9 71 2.8 ESE 11 13 6 7 - - 0.0
21/10:00pm 16.3 15.2 9.9 66 3.4 SE 6 7 3 4 - - 0.0
21/09:30pm 17.2 15.5 9.9 62 3.9 SSE 9 13 5 7 - - 0.0
21/09:00pm 18.1 16.0 9.7 58 4.4 SSE 11 17 6 9 - - 0.0
21/08:30pm 18.4 16.5 10.5 60 4.2 SSE 11 15 6 8 - - 0.0
21/08:00pm 17.8 16.7 12.0 69 3.2 SSE 9 11 5 6 - - 0.0
21/07:30pm 18.3 17.8 12.7 70 3.1 SSE 7 11 4 6 - - 0.0
21/07:00pm 18.9 18.4 12.6 67 3.5 SSE 7 11 4 6 - - 0.0
21/06:30pm 19.5 17.8 11.3 59 4.5 S 11 19 6 10 - - 0.0
21/06:00pm 20.0 18.2 11.0 56 4.9 S 11 19 6 10 - - 0.0
21/05:30pm 20.8 19.4 13.3 62 4.3 SSW 13 17 7 9 - - 0.0
21/05:00pm 21.9 19.7 12.2 54 5.5 SSW 15 20 8 11 - - 0.0
21/04:30pm 22.6 20.5 12.5 53 5.8 SSW 15 22 8 12 - - 0.0
21/04:00pm 24.0 22.5 13.2 50 6.3 SW 13 20 7 11 - - 0.0
21/03:30pm 24.3 22.4 11.9 45 7.1 SW 13 20 7 11 - - 0.0
21/03:00pm 24.9 23.0 11.8 44 7.5 SW 13 17 7 9 - - 0.0
21/02:30pm 25.0 22.8 10.8 41 8.0 SW 13 19 7 10 - - 0.0
21/02:00pm 24.6 22.7 10.5 41 7.8 WSW 11 15 6 8 - - 0.0
21/01:30pm 24.6 22.1 8.1 35 8.8 WSW 11 13 6 7 - - 0.0
21/01:00pm 24.9 23.1 10.8 41 7.9 WSW 11 15 6 8 - - 0.0
21/12:30pm 25.3 23.3 7.0 31 9.6 W 7 11 4 6 - - 0.0
21/12:00pm 25.6 24.0 8.1 33 9.4 W 6 9 3 5 - - 0.0
21/11:30am 25.7 23.9 7.3 31 9.7 WSW 6 9 3 5 - - 0.0
21/11:00am 25.4 23.2 6.1 29 10.0 E 7 15 4 8 - - 0.0
21/10:30am 24.3 22.1 6.1 31 9.3 E 7 13 4 7 - - 0.0
21/10:00am 23.2 20.5 5.6 32 8.9 ENE 9 17 5 9 - - 0.0
21/09:30am 21.7 18.9 5.2 34 8.2 E 9 19 5 10 - - 0.0
21/09:00am 20.1 16.1 5.0 37 7.4 ENE 15 24 8 13 - - 0.0
21/08:30am 18.6 14.3 5.1 41 6.5 E 17 26 9 14 - - 0.0
21/08:00am 17.0 12.6 5.0 45 5.7 E 17 22 9 12 - - 0.0
21/07:30am 15.2 10.9 5.1 51 4.8 E 17 24 9 13 - - 0.0
21/07:00am 14.4 10.0 4.7 52 4.5 ENE 17 24 9 13 - - 0.0
21/06:30am 14.8 10.0 4.5 50 4.8 ENE 19 24 10 13 - - 0.0
21/06:00am 15.0 10.6 4.7 50 4.8 E 17 20 9 11 - - 0.0
21/05:30am 14.8 10.8 4.8 51 4.7 ENE 15 20 8 11 - - 0.0
21/05:00am 15.5 11.2 5.1 50 4.9 ENE 17 20 9 11 - - 0.0
21/04:30am 15.5 11.6 5.4 51 4.8 ENE 15 22 8 12 - - 0.0
21/04:00am 15.4 11.2 5.6 52 4.7 ENE 17 20 9 11 - - 0.0
21/03:30am 15.2 11.4 5.7 53 4.5 ENE 15 20 8 11 - - 0.0
21/03:00am 15.2 11.4 6.0 54 4.4 ENE 15 20 8 11 - - 0.0
21/02:30am 15.3 11.6 6.1 54 4.4 ENE 15 20 8 11 - - 0.0
21/02:00am 15.6 11.9 6.1 53 4.6 ENE 15 19 8 10 - - 0.0
21/01:30am 15.6 11.9 6.1 53 4.6 E 15 17 8 9 - - 0.0
21/01:00am 16.0 12.7 6.2 52 4.8 E 13 17 7 9 - - 0.0
21/12:30am 16.2 12.9 6.3 52 4.8 ENE 13 15 7 8 - - 0.0
21/12:00am 17.4 14.5 6.3 48 5.5 ENE 11 13 6 7 - - 0.0
 
Date/Time
WST
Temp
°C
App
Temp
°C
Dew
Point
Rel
Hum
%
Delta-T
°C
Wind Press
QNH
hPa
Press
MSL
hPa
Rain
since 9 am
mm
Dir
 
Spd
km/h
Gust
km/h
Spd
kts
Gust
kts
20/11:30pm 17.7 14.5 6.9 49 5.4 ENE 13 17 7 9 - - 0.0
20/11:00pm 18.0 14.9 7.4 50 5.4 ENE 13 19 7 10 - - 0.0
20/10:30pm 17.8 15.6 9.4 58 4.4 ENE 11 15 6 8 - - 0.0
20/10:00pm 17.6 15.9 11.2 66 3.5 E 11 15 6 8 - - 0.0
20/09:30pm 18.2 16.7 12.0 67 3.4 ESE 11 15 6 8 - - 0.0
20/09:00pm 18.6 17.6 13.5 72 2.9 SE 11 13 6 7 - - 0.0
20/08:30pm 19.1 18.1 13.5 70 3.2 SE 11 13 6 7 - - 0.0
20/08:00pm 19.6 19.4 13.5 68 3.5 SSE 7 9 4 5 - - 0.0
20/07:30pm 19.9 19.5 13.1 65 3.9 SE 7 9 4 5 - - 0.0
20/07:00pm 20.7 19.6 11.9 57 4.9 SSE 9 17 5 9 - - 0.0
20/06:30pm 21.4 20.1 11.4 53 5.6 SSE 9 13 5 7 - - 0.0
20/06:00pm 22.9 22.6 11.3 48 6.5 S 4 6 2 3 - - 0.0
20/05:30pm 25.4 23.8 8.0 33 9.3 E 6 9 3 5 - - 0.0
20/05:00pm 26.8 25.1 8.3 31 10.0 E 7 13 4 7 - - 0.0
20/04:30pm 27.6 25.4 8.0 29 10.6 E 9 13 5 7 - - 0.0
20/04:00pm 28.2 25.8 8.5 29 10.8 ESE 11 19 6 10 - - 0.0
20/03:30pm 28.4 26.5 7.6 27 11.2 ENE 7 17 4 9 - - 0.0
20/03:00pm 28.3 26.3 8.6 29 10.8 E 9 17 5 9 - - 0.0
20/02:30pm 28.5 26.5 8.7 29 10.9 E 9 15 5 8 - - 0.0
20/02:00pm 28.3 26.3 8.6 29 10.8 E 9 17 5 9 - - 0.0
20/01:30pm 27.6 25.3 9.0 31 10.2 NE 11 20 6 11 - - 0.0
20/01:00pm 27.1 24.5 9.5 33 9.7 E 13 20 7 11 - - 0.0
20/12:30pm 27.6 25.6 10.3 34 9.7 E 11 20 6 11 - - 0.0
20/12:00pm 26.5 23.6 9.8 35 9.3 ENE 15 24 8 13 - - 0.0
20/11:30am 25.9 23.4 9.7 36 8.9 ENE 13 28 7 15 - - 0.0
20/11:00am 24.8 21.2 9.9 39 8.2 ENE 19 32 10 17 - - 0.0
20/10:30am 24.3 21.6 10.2 41 7.8 ENE 15 24 8 13 - - 0.0
20/10:00am 22.7 18.9 9.8 44 7.0 ENE 20 32 11 17 - - 0.0
20/09:30am 21.4 17.2 9.6 47 6.3 ENE 22 33 12 18 - - 0.0
20/09:00am 20.4 16.6 9.9 51 5.6 ENE 20 32 11 17 - - 0.0
20/08:30am 19.1 15.3 9.9 55 4.9 ENE 20 33 11 18 - - 0.0
20/08:00am 18.1 14.5 10.0 59 4.3 ENE 19 28 10 15 - - 0.0
20/07:30am 16.8 13.2 10.0 64 3.6 ENE 19 30 10 16 - - 0.0
20/07:00am 16.1 12.2 9.5 65 3.4 ENE 20 32 11 17 - - 0.0
20/06:30am 16.1 12.2 9.5 65 3.4 ENE 20 28 11 15 - - 0.0
20/06:00am 16.1 12.7 9.3 64 3.5 E 17 26 9 14 - - 0.0
20/05:30am 16.6 13.2 9.3 62 3.8 ENE 17 28 9 15 - - 0.0
20/05:00am 17.1 13.2 9.3 60 4.1 ENE 20 30 11 16 - - 0.0
20/04:30am 17.1 13.7 9.3 60 4.1 ENE 17 24 9 13 - - 0.0
20/04:00am 17.0 13.5 8.9 59 4.2 ENE 17 24 9 13 - - 0.0
20/03:30am 17.1 13.7 9.0 59 4.2 ENE 17 22 9 12 - - 0.0
20/03:00am 17.1 14.0 8.8 58 4.3 ENE 15 22 8 12 - - 0.0
20/02:30am 16.9 14.0 8.3 57 4.4 E 13 20 7 11 - - 0.0
20/02:00am 17.1 14.2 8.3 56 4.5 E 13 20 7 11 - - 0.0
20/01:30am 17.1 14.2 8.3 56 4.5 E 13 17 7 9 - - 0.0
20/01:00am 17.4 14.5 8.3 55 4.7 E 13 17 7 9 - - 0.0
20/12:30am 17.3 14.8 8.2 55 4.6 E 11 15 6 8 - - 0.0
20/12:00am 18.1 15.6 8.1 52 5.1 E 11 13 6 7 - - 0.0
 
Date/Time
WST
Temp
°C
App
Temp
°C
Dew
Point
Rel
Hum
%
Delta-T
°C
Wind Press
QNH
hPa
Press
MSL
hPa
Rain
since 9 am
mm
Dir
 
Spd
km/h
Gust
km/h
Spd
kts
Gust
kts
19/11:30pm 18.2 15.6 7.6 50 5.4 E 11 15 6 8 - - 0.0
19/11:00pm 18.8 16.2 7.6 48 5.7 ENE 11 15 6 8 - - 0.0
19/10:30pm 19.1 16.4 7.2 46 6.0 E 11 15 6 8 - - 0.0
19/10:00pm 19.4 16.7 7.2 45 6.2 E 11 15 6 8 - - 0.0
19/09:30pm 19.7 16.8 6.4 42 6.7 E 11 15 6 8 - - 0.0
19/09:00pm 19.4 16.8 6.2 42 6.6 E 9 11 5 6 - - 0.0
19/08:30pm 19.5 16.9 5.9 41 6.7 E 9 11 5 6 - - 0.0
19/08:00pm 20.4 17.8 6.0 39 7.2 E 9 13 5 7 - - 0.0
19/07:30pm 20.2 17.5 5.8 39 7.2 E 9 13 5 7 - - 0.0
19/07:00pm 20.8 18.2 6.0 38 7.4 E 9 11 5 6 - - 0.0
19/06:30pm 21.6 19.4 5.5 35 8.0 ENE 6 7 3 4 - - 0.0
19/06:00pm 23.2 20.9 5.6 32 8.9 E 7 11 4 6 - - 0.0
19/05:30pm 24.8 22.1 5.6 29 9.8 E 9 17 5 9 - - 0.0
19/05:00pm 26.2 21.8 4.6 25 10.9 E 17 28 9 15 - - 0.0
19/04:30pm 27.4 23.9 5.6 25 11.3 E 13 24 7 13 - - 0.0
19/04:00pm 27.8 23.7 6.0 25 11.4 E 17 28 9 15 - - 0.0
19/03:30pm 28.3 24.2 6.4 25 11.6 ESE 17 30 9 16 - - 0.0
19/03:00pm 27.4 23.7 6.2 26 11.1 E 15 24 8 13 - - 0.0
19/02:30pm 28.4 24.9 7.1 26 11.4 E 15 26 8 14 - - 0.0
19/02:00pm 28.0 24.9 7.3 27 11.1 E 13 22 7 12 - - 0.0
19/01:30pm 27.4 23.8 6.8 27 10.9 ENE 15 26 8 14 - - 0.0
19/01:00pm 27.1 24.2 8.0 30 10.3 E 13 26 7 14 - - 0.0
19/12:30pm 26.1 22.4 8.1 32 9.7 ENE 17 28 9 15 - - 0.0
19/12:00pm 25.5 21.5 8.1 33 9.3 E 19 33 10 18 - - 0.0
19/11:30am 24.8 21.3 8.7 36 8.7 NE 17 28 9 15 - - 0.0
19/11:00am 23.6 19.0 8.1 37 8.2 ENE 22 39 12 21 - - 0.0
19/10:30am 23.9 20.5 9.1 39 8.0 ENE 17 33 9 18 - - 0.0
19/10:00am 22.2 17.8 9.0 43 7.1 ENE 22 41 12 22 - - 0.0
19/09:30am 21.2 16.4 8.8 45 6.6 ENE 24 37 13 20 - - 0.0
19/09:00am 20.0 15.5 9.9 52 5.4 ENE 24 33 13 18 - - 0.0
19/08:30am 18.8 14.8 10.4 58 4.5 E 22 35 12 19 - - 0.0
19/08:00am 17.5 14.1 10.6 64 3.7 E 19 28 10 15 - - 0.0
19/07:30am 16.0 12.6 10.5 70 2.9 E 19 26 10 14 - - 0.0
19/07:00am 15.5 11.9 10.5 72 2.6 E 20 30 11 16 - - 0.0
19/06:30am 15.5 11.5 10.5 72 2.6 E 22 32 12 17 - - 0.0
19/06:00am 15.6 12.0 10.6 72 2.6 E 20 33 11 18 - - 0.0
19/05:30am 15.7 12.2 10.9 73 2.6 E 20 30 11 16 - - 0.0
19/05:00am 15.7 12.3 10.7 72 2.7 E 19 26 10 14 - - 0.0
19/04:30am 16.3 12.8 11.0 71 2.8 E 20 33 11 18 - - 0.0
19/04:00am 16.4 12.9 10.9 70 2.9 E 20 32 11 17 - - 0.0
19/03:30am 16.8 12.6 11.1 69 3.1 E 24 35 13 19 - - 0.0
19/03:00am 17.0 13.2 11.1 68 3.2 E 22 35 12 19 - - 0.0
19/02:30am 16.9 13.7 11.4 70 3.0 E 19 26 10 14 - - 0.0
19/02:00am 17.1 14.4 11.6 70 3.0 E 17 24 9 13 - - 0.0
19/01:30am 17.1 14.8 11.6 70 3.0 E 15 24 8 13 - - 0.0
19/01:00am 17.1 15.1 11.6 70 3.0 E 13 19 7 10 - - 0.0
19/12:30am 17.5 15.1 11.3 67 3.4 E 15 19 8 10 - - 0.0
19/12:00am 18.3 15.8 11.1 63 3.9 E 15 22 8 12 - - 0.0
 
Date/Time
WST
Temp
°C
App
Temp
°C
Dew
Point
Rel
Hum
%
Delta-T
°C
Wind Press
QNH
hPa
Press
MSL
hPa
Rain
since 9 am
mm
Dir
 
Spd
km/h
Gust
km/h
Spd
kts
Gust
kts
18/11:30pm 18.2 15.7 9.8 58 4.5 ESE 13 20 7 11 - - 0.0
18/11:00pm 17.9 15.1 8.5 54 4.8 E 13 19 7 10 - - 0.0

Other Formats:

Comma delimited format used in spreadsheet applications
http://www.bom.gov.au/fwo/IDW60801/IDW60801.94614.axf

JavaScript Object Notation format (JSON) in row-major order
http://www.bom.gov.au/fwo/IDW60801/IDW60801.94614.json